Time;durP1;ratioP1;P1;durP2;ratioP2;P2;SDS_P1;SDS_P2;PMS_P1;PMS_P2;Temp;Humidity;BMP_temperature;BMP_pressure;BME280_temperature;BME280_humidity;BME280_pressure;Samples;Min_cycle;Max_cycle;Signal;HPM_P1;HPM_P2
2023/09/03 00:00:31;;;;;;;4.00;2.07;;;;;;;21.90;79.09;100885.81;5088411;28;20401;-59
2023/09/03 00:02:56;;;;;;;3.70;2.60;;;;;;;21.91;79.42;100880.88;5101636;28;20716;-60
2023/09/03 00:05:22;;;;;;;4.13;2.40;;;;;;;21.90;78.97;100880.06;5104593;28;20509;-59
2023/09/03 00:07:51;;;;;;;5.30;2.90;;;;;;;21.90;78.86;100873.50;5108564;28;20162;-59
2023/09/03 00:10:17;;;;;;;4.03;2.43;;;;;;;21.88;78.94;100865.25;5108677;28;20182;-60
2023/09/03 00:12:43;;;;;;;4.90;2.70;;;;;;;21.88;79.22;100859.50;5105911;28;20446;-59
2023/09/03 00:15:09;;;;;;;4.50;2.63;;;;;;;21.90;79.23;100867.72;5088234;28;20278;-59
2023/09/03 00:17:34;;;;;;;6.33;3.00;;;;;;;21.88;79.17;100859.50;5087824;28;20181;-59
2023/09/03 00:19:59;;;;;;;4.40;2.63;;;;;;;21.88;79.36;100865.25;5089950;28;20255;-59
2023/09/03 00:22:25;;;;;;;5.03;2.63;;;;;;;21.88;78.91;100865.25;5087217;28;20248;-59
2023/09/03 00:24:50;;;;;;;5.07;2.67;;;;;;;21.89;79.04;100863.22;5069440;28;20170;-59
2023/09/03 00:27:16;;;;;;;3.77;2.20;;;;;;;21.88;79.19;100862.38;5087861;28;20273;-59
2023/09/03 00:29:41;;;;;;;3.43;2.60;;;;;;;21.88;78.92;100865.25;5096537;28;20223;-59
2023/09/03 00:32:07;;;;;;;5.47;3.07;;;;;;;21.88;78.76;100864.44;5101967;28;20633;-59
2023/09/03 00:34:32;;;;;;;4.50;2.57;;;;;;;21.87;78.56;100863.59;5090253;28;20178;-59
2023/09/03 00:36:58;;;;;;;3.97;2.30;;;;;;;21.88;79.07;100875.94;5088628;28;20190;-59
2023/09/03 00:39:24;;;;;;;3.60;2.13;;;;;;;21.88;78.71;100873.06;5091583;28;20182;-59
2023/09/03 00:41:50;;;;;;;4.17;2.30;;;;;;;21.87;79.04;100877.97;5098715;28;20810;-59
2023/09/03 00:44:15;;;;;;;3.57;2.60;;;;;;;21.87;78.70;100883.72;5093249;28;20208;-59
2023/09/03 00:46:44;;;;;;;4.33;3.00;;;;;;;21.86;78.78;100879.19;5093218;28;20211;-60
2023/09/03 00:49:11;;;;;;;4.63;2.20;;;;;;;21.86;79.01;100879.19;5088645;28;20695;-59
2023/09/03 00:51:37;;;;;;;3.30;2.30;;;;;;;21.87;79.05;100885.78;5070242;28;20926;-59
2023/09/03 00:54:03;;;;;;;5.13;2.30;;;;;;;21.87;79.05;100885.78;5107844;28;20480;-59
2023/09/03 00:56:28;;;;;;;4.37;2.53;;;;;;;21.87;78.52;100889.47;5094294;28;20263;-59
2023/09/03 00:58:54;;;;;;;4.60;2.63;;;;;;;21.85;78.61;100891.91;5073540;28;20528;-59
2023/09/03 01:01:19;;;;;;;2.90;2.00;;;;;;;21.85;78.65;100891.91;5095869;28;20279;-59
2023/09/03 01:03:46;;;;;;;4.03;2.60;;;;;;;21.86;78.54;100895.59;5111760;28;20411;-59
2023/09/03 01:06:11;;;;;;;7.13;2.30;;;;;;;21.85;78.55;100894.78;5089993;28;20201;-59
2023/09/03 01:08:37;;;;;;;4.30;2.70;;;;;;;21.85;78.87;100897.66;5093872;28;20426;-59
2023/09/03 01:11:22;;;;;;;4.20;2.80;;;;;;;21.85;79.00;100900.53;5108329;28;20186;-59
2023/09/03 01:13:53;;;;;;;3.90;2.50;;;;;;;21.85;78.62;100897.66;5094141;28;21121;-59
2023/09/03 01:17:08;;;;;;;4.97;2.93;;;;;;;21.85;79.03;100906.28;5072252;28;20472;-59
2023/09/03 01:19:51;;;;;;;3.50;2.17;;;;;;;21.84;78.94;100913.25;5086276;28;20976;-60
2023/09/03 01:22:26;;;;;;;4.23;2.53;;;;;;;21.84;79.00;100904.63;5109463;28;20415;-59
2023/09/03 01:25:23;;;;;;;3.40;2.40;;;;;;;21.84;78.55;100909.56;5108558;28;20431;-59
2023/09/03 01:27:54;;;;;;;4.43;2.40;;;;;;;21.85;78.59;100912.03;5022636;28;20417;-59
2023/09/03 01:30:20;;;;;;;4.00;2.57;;;;;;;21.84;78.71;100904.63;5079105;28;20422;-59
2023/09/03 01:32:46;;;;;;;4.07;2.63;;;;;;;21.84;78.46;100916.13;5086732;28;20423;-60
2023/09/03 01:35:12;;;;;;;3.80;2.30;;;;;;;21.84;78.61;100913.25;5093202;28;20161;-59
2023/09/03 01:37:37;;;;;;;3.23;2.27;;;;;;;21.84;78.63;100921.03;5092996;28;20411;-59
2023/09/03 01:40:03;;;;;;;3.50;2.37;;;;;;;21.83;78.50;100928.81;5088879;28;20183;-59
2023/09/03 01:42:29;;;;;;;7.00;3.00;;;;;;;21.83;78.81;100925.97;5111349;28;20173;-59
2023/09/03 01:44:54;;;;;;;4.83;2.57;;;;;;;21.85;78.43;100928.44;5109474;28;20423;-59
2023/09/03 01:47:27;;;;;;;4.67;2.67;;;;;;;21.84;78.86;100939.13;5109424;28;20173;-59
2023/09/03 01:49:59;;;;;;;3.23;2.10;;;;;;;21.84;78.81;100932.53;5092574;28;20225;-59
2023/09/03 01:52:27;;;;;;;4.77;2.53;;;;;;;21.83;78.71;100937.44;5088791;28;20465;-59
2023/09/03 01:54:53;;;;;;;7.77;3.13;;;;;;;21.85;78.35;100951.44;5092675;28;20423;-59
2023/09/03 01:57:22;;;;;;;4.77;2.60;;;;;;;21.82;78.34;100953.06;5092873;28;20950;-59
2023/09/03 01:59:58;;;;;;;5.43;2.57;;;;;;;21.82;78.59;100955.94;5092512;28;20162;-59
2023/09/03 02:02:24;;;;;;;6.30;2.70;;;;;;;21.83;78.38;100954.69;5107050;28;20439;-59
2023/09/03 02:04:50;;;;;;;3.50;2.60;;;;;;;21.83;78.77;100959.63;5110734;28;20926;-59
2023/09/03 02:07:16;;;;;;;4.93;2.77;;;;;;;21.83;78.73;100966.19;5103370;28;20922;-59
2023/09/03 02:09:41;;;;;;;4.50;2.37;;;;;;;21.82;78.62;100967.41;5071957;28;20444;-59
2023/09/03 02:12:07;;;;;;;4.37;2.50;;;;;;;21.82;78.55;100978.91;5089102;28;20896;-60
2023/09/03 02:14:33;;;;;;;5.50;2.50;;;;;;;21.83;78.32;100976.88;5092513;28;20170;-59
2023/09/03 02:16:58;;;;;;;4.60;2.77;;;;;;;21.82;78.36;100972.38;5089174;28;20222;-59
2023/09/03 02:19:24;;;;;;;3.50;2.30;;;;;;;21.80;78.19;100987.13;5095050;28;20185;-59
2023/09/03 02:21:50;;;;;;;4.60;2.53;;;;;;;21.82;78.82;100995.38;5105478;28;20206;-59
2023/09/03 02:24:15;;;;;;;4.43;2.70;;;;;;;21.81;78.15;100991.66;5109028;28;20185;-59
2023/09/03 02:26:42;;;;;;;5.27;2.60;;;;;;;21.81;78.77;100988.78;5087573;28;20522;-60
2023/09/03 02:29:07;;;;;;;5.03;2.43;;;;;;;21.81;78.55;100985.91;5109201;28;20517;-59
2023/09/03 02:31:33;;;;;;;4.70;2.53;;;;;;;21.81;78.11;100979.31;5106226;28;20496;-59
2023/09/03 02:33:58;;;;;;;4.10;2.77;;;;;;;21.82;78.08;100976.03;5105391;28;20188;-59
2023/09/03 02:36:24;;;;;;;3.30;2.30;;;;;;;21.81;78.34;100968.66;5097124;28;20206;-59
2023/09/03 02:38:59;;;;;;;3.60;2.47;;;;;;;21.81;78.44;100973.56;5073739;28;20182;-59
2023/09/03 02:41:24;;;;;;;4.90;2.47;;;;;;;21.80;78.75;100984.25;5092119;28;20625;-59
2023/09/03 02:43:50;;;;;;;4.57;2.40;;;;;;;21.80;78.37;100984.25;5089750;28;20428;-59
2023/09/03 02:46:15;;;;;;;4.23;2.63;;;;;;;21.80;78.39;100984.25;5108257;28;20185;-59
2023/09/03 02:48:41;;;;;;;5.23;2.40;;;;;;;21.81;78.44;100985.06;5107428;28;20186;-59
2023/09/03 02:51:06;;;;;;;4.83;2.83;;;;;;;21.81;78.36;100987.94;5108971;28;20264;-59
2023/09/03 02:53:31;;;;;;;3.60;2.43;;;;;;;21.81;78.68;100985.06;5100020;28;20186;-59
2023/09/03 02:55:58;;;;;;;4.60;3.13;;;;;;;21.80;78.59;100987.13;5085743;28;20212;-59
2023/09/03 02:58:24;;;;;;;4.33;2.63;;;;;;;21.80;78.72;100986.28;5107429;28;20243;-59
2023/09/03 03:00:50;;;;;;;4.57;2.60;;;;;;;21.79;78.25;100988.34;5081989;28;20451;-59
2023/09/03 03:03:15;;;;;;;4.40;2.60;;;;;;;21.80;78.40;100984.25;5107611;28;20645;-59
2023/09/03 03:05:40;;;;;;;6.37;2.73;;;;;;;21.78;78.24;100992.41;5109468;28;20174;-59
2023/09/03 03:08:08;;;;;;;3.43;2.57;;;;;;;21.78;78.10;100986.66;5103217;28;20178;-59
2023/09/03 03:10:33;;;;;;;4.47;3.03;;;;;;;21.78;78.40;100992.41;5088470;28;20186;-59
2023/09/03 03:12:59;;;;;;;6.20;2.67;;;;;;;21.79;78.22;100999.84;5088754;28;21122;-59
2023/09/03 03:15:24;;;;;;;10.00;3.20;;;;;;;21.79;78.09;100999.84;5106905;28;20613;-59
2023/09/03 03:17:50;;;;;;;4.33;2.67;;;;;;;21.79;78.22;100999.00;5105294;28;20178;-59
2023/09/03 03:20:15;;;;;;;4.53;2.67;;;;;;;21.79;78.38;100999.84;5076711;28;20185;-59
2023/09/03 03:22:41;;;;;;;3.80;2.80;;;;;;;21.79;78.02;101001.88;5109351;28;20181;-59
2023/09/03 03:25:06;;;;;;;5.37;2.60;;;;;;;21.79;78.44;101005.59;5107897;28;20625;-59
2023/09/03 03:27:32;;;;;;;4.80;2.33;;;;;;;21.79;78.17;101005.59;5092063;28;20657;-59
2023/09/03 03:29:57;;;;;;;3.57;2.40;;;;;;;21.78;78.01;101012.53;5091349;28;20193;-59
2023/09/03 03:32:23;;;;;;;4.30;2.87;;;;;;;21.79;78.53;101011.34;5097650;28;20186;-59
2023/09/03 03:34:48;;;;;;;3.47;2.30;;;;;;;21.77;78.17;101013.75;5097641;28;20182;-59
2023/09/03 03:37:14;;;;;;;3.57;2.80;;;;;;;21.77;78.15;101022.38;5070417;28;20183;-60
2023/09/03 03:39:39;;;;;;;4.50;2.93;;;;;;;21.77;78.13;101016.63;5088969;28;20163;-59
2023/09/03 03:42:05;;;;;;;4.90;2.50;;;;;;;21.77;78.17;101022.38;5070249;28;20174;-59
2023/09/03 03:44:31;;;;;;;4.77;2.80;;;;;;;21.77;77.83;101021.56;5091048;28;20273;-60
2023/09/03 03:46:56;;;;;;;3.73;2.70;;;;;;;21.77;78.31;101024.44;5105089;28;20519;-59
2023/09/03 03:49:21;;;;;;;4.73;2.60;;;;;;;21.76;78.24;101017.84;5101123;28;20572;-59
2023/09/03 03:51:47;;;;;;;3.47;2.30;;;;;;;21.76;78.23;101014.13;5089735;28;20174;-60
2023/09/03 03:54:12;;;;;;;3.77;2.80;;;;;;;21.77;77.66;101024.44;5091420;28;20552;-59
2023/09/03 03:56:38;;;;;;;4.30;2.47;;;;;;;21.77;77.94;101024.44;5108916;28;20194;-59
2023/09/03 03:59:04;;;;;;;3.83;2.60;;;;;;;21.76;78.25;101023.59;5094518;28;20581;-59
2023/09/03 04:01:29;;;;;;;3.93;2.60;;;;;;;21.76;78.22;101026.47;5071171;28;20255;-59
2023/09/03 04:03:55;;;;;;;4.60;2.63;;;;;;;21.75;77.78;101027.69;5104072;28;20431;-59
2023/09/03 04:06:21;;;;;;;4.70;2.77;;;;;;;21.76;78.14;101026.47;5090407;28;20162;-59
2023/09/03 04:08:46;;;;;;;3.77;2.40;;;;;;;21.75;78.02;101021.09;5107867;28;20169;-59
2023/09/03 04:11:13;;;;;;;4.50;2.70;;;;;;;21.75;78.06;101030.56;5107286;28;20197;-59
2023/09/03 04:13:39;;;;;;;3.80;2.40;;;;;;;21.75;77.51;101030.56;5099572;28;20201;-59
2023/09/03 04:16:14;;;;;;;5.40;2.80;;;;;;;21.75;77.92;101033.44;5086956;28;21157;-60
2023/09/03 04:18:40;;;;;;;4.67;2.60;;;;;;;21.75;78.14;101035.47;5068896;28;20181;-60
2023/09/03 04:21:06;;;;;;;4.10;2.60;;;;;;;21.75;77.98;101039.19;5087351;28;20420;-59
2023/09/03 04:23:32;;;;;;;4.37;2.90;;;;;;;21.75;77.64;101036.31;5100882;28;20637;-59
2023/09/03 04:25:57;;;;;;;4.80;2.60;;;;;;;21.75;77.88;101039.19;5089830;28;20441;-59
2023/09/03 04:28:23;;;;;;;3.60;2.70;;;;;;;21.74;77.88;101031.78;5099933;28;20182;-59
2023/09/03 04:31:10;;;;;;;6.00;3.30;;;;;;;21.75;77.98;101049.84;5087988;28;20631;-59
2023/09/03 04:33:36;;;;;;;4.70;2.80;;;;;;;21.75;77.61;101036.31;5103375;28;20520;-59
2023/09/03 04:36:02;;;;;;;4.13;2.63;;;;;;;21.74;78.13;101037.53;5069152;28;20456;-59
2023/09/03 04:38:28;;;;;;;3.40;2.60;;;;;;;21.74;77.56;101042.44;5088015;28;20183;-59
2023/09/03 04:40:53;;;;;;;4.90;2.73;;;;;;;21.74;77.48;101048.19;5090629;28;20427;-59
2023/09/03 04:43:19;;;;;;;4.40;2.87;;;;;;;21.74;77.73;101042.44;5102642;28;20193;-59
2023/09/03 04:45:47;;;;;;;5.03;2.83;;;;;;;21.73;77.27;101044.47;5104312;28;20169;-59
2023/09/03 04:48:13;;;;;;;4.60;2.80;;;;;;;21.73;77.93;101047.34;5107237;28;20165;-59
2023/09/03 04:50:39;;;;;;;4.60;2.70;;;;;;;21.73;77.57;101041.59;5106661;28;20479;-59
2023/09/03 04:53:04;;;;;;;3.30;2.40;;;;;;;21.73;77.57;101040.78;5092881;28;20608;-59
2023/09/03 04:55:33;;;;;;;5.00;3.33;;;;;;;21.73;77.83;101037.91;5097886;28;20181;-59
2023/09/03 04:57:59;;;;;;;4.10;2.80;;;;;;;21.73;77.37;101041.59;5099360;28;20182;-59
2023/09/03 05:00:24;;;;;;;3.07;2.37;;;;;;;21.72;77.28;101048.56;5086159;28;20703;-60
2023/09/03 05:02:50;;;;;;;4.77;2.73;;;;;;;21.73;77.30;101055.16;5101065;28;20189;-59
2023/09/03 05:05:15;;;;;;;4.10;2.73;;;;;;;21.72;77.65;101057.19;5102913;28;20614;-59
2023/09/03 05:07:41;;;;;;;4.60;2.83;;;;;;;21.72;77.18;101057.19;5071097;28;20233;-59
2023/09/03 05:10:07;;;;;;;4.30;2.63;;;;;;;21.73;77.87;101058.03;5068510;28;20179;-59
2023/09/03 05:12:33;;;;;;;3.93;2.47;;;;;;;21.72;77.20;101060.06;5098361;28;20173;-59
2023/09/03 05:14:59;;;;;;;3.60;2.50;;;;;;;21.72;77.76;101067.88;5086714;28;20416;-59
2023/09/03 05:17:24;;;;;;;5.70;2.63;;;;;;;21.72;77.70;101067.88;5095324;28;20470;-59
2023/09/03 05:19:49;;;;;;;3.60;2.53;;;;;;;21.71;77.17;101078.53;5095378;28;20179;-59
2023/09/03 05:22:15;;;;;;;3.47;2.10;;;;;;;21.72;77.69;101079.38;5104574;28;20177;-59
2023/09/03 05:24:40;;;;;;;3.47;2.60;;;;;;;21.72;77.17;101082.25;5108009;28;20169;-59
2023/09/03 05:27:06;;;;;;;6.13;3.17;;;;;;;21.71;77.61;101081.41;5097618;28;20627;-59
2023/09/03 05:29:31;;;;;;;3.43;2.37;;;;;;;21.72;77.31;101091.69;5090949;28;20163;-59
2023/09/03 05:31:57;;;;;;;4.23;2.53;;;;;;;21.71;77.11;101087.16;5077609;28;20186;-59
2023/09/03 05:34:23;;;;;;;4.23;2.80;;;;;;;21.72;77.19;101096.63;5079634;28;20193;-59
2023/09/03 05:36:49;;;;;;;6.50;3.13;;;;;;;21.71;77.14;101101.53;5092735;28;20194;-59
2023/09/03 05:39:14;;;;;;;5.00;2.70;;;;;;;21.72;77.49;101111.81;5096195;28;20588;-59
2023/09/03 05:41:40;;;;;;;4.47;2.70;;;;;;;21.71;77.38;101121.66;5110455;28;20602;-59
2023/09/03 05:44:12;;;;;;;3.63;2.70;;;;;;;21.71;77.50;101123.66;5110112;28;20779;-59
2023/09/03 05:46:38;;;;;;;8.20;2.60;;;;;;;21.71;77.06;101123.66;5108175;28;20174;-59
2023/09/03 05:49:03;;;;;;;5.17;2.47;;;;;;;21.70;77.57;101128.63;5103489;28;20446;-59
2023/09/03 05:51:29;;;;;;;4.13;2.40;;;;;;;21.71;77.08;101129.41;5093155;28;20172;-59
2023/09/03 05:53:54;;;;;;;4.37;2.73;;;;;;;21.70;77.30;101140.09;5090541;28;20641;-59
2023/09/03 05:56:20;;;;;;;4.20;2.83;;;;;;;21.71;77.15;101146.66;5090303;28;20696;-59
2023/09/03 05:58:45;;;;;;;4.40;3.10;;;;;;;21.71;77.31;101140.91;5091554;28;20166;-60
2023/09/03 06:01:11;;;;;;;6.00;3.03;;;;;;;21.71;77.24;101138.88;5096129;28;20174;-59
2023/09/03 06:03:37;;;;;;;4.13;2.53;;;;;;;21.72;77.14;101143.41;5091927;28;20186;-58
2023/09/03 06:06:07;;;;;;;4.67;2.23;;;;;;;21.71;77.45;101152.41;5094056;28;20257;-59
2023/09/03 06:08:32;;;;;;;6.00;2.80;;;;;;;21.71;77.52;101138.88;5085958;28;20436;-59
2023/09/03 06:10:59;;;;;;;3.87;2.60;;;;;;;21.71;77.68;101133.13;5079662;28;20472;-59
2023/09/03 06:13:28;;;;;;;3.87;2.43;;;;;;;21.70;77.36;101128.63;5103520;28;20176;-59
2023/09/03 06:15:54;;;;;;;4.10;2.70;;;;;;;21.71;77.14;101126.53;5093012;28;20587;-59
2023/09/03 06:18:20;;;;;;;3.67;2.30;;;;;;;21.70;77.02;101140.09;5072027;28;20440;-59
2023/09/03 06:20:45;;;;;;;3.63;2.57;;;;;;;21.71;77.50;101140.91;5094516;28;20447;-59
2023/09/03 06:23:17;;;;;;;4.17;2.73;;;;;;;21.71;77.54;101147.50;5088262;28;20177;-59
2023/09/03 06:25:43;;;;;;;3.87;2.50;;;;;;;21.71;77.25;101146.66;5092144;28;20278;-58
2023/09/03 06:28:09;;;;;;;3.80;2.73;;;;;;;21.71;77.36;101153.25;5089891;28;20937;-59
2023/09/03 06:30:34;;;;;;;3.43;2.50;;;;;;;21.71;77.44;101159.00;5092428;28;20201;-59
2023/09/03 06:33:00;;;;;;;4.80;3.37;;;;;;;21.72;77.69;101156.97;5093022;28;20231;-59
2023/09/03 06:35:25;;;;;;;3.73;2.50;;;;;;;21.72;77.43;101159.84;5090668;28;20197;-58
2023/09/03 06:37:51;;;;;;;7.40;3.10;;;;;;;21.71;77.22;101158.16;5104272;28;20181;-59
2023/09/03 06:40:16;;;;;;;5.03;2.80;;;;;;;21.71;77.66;101158.16;5110524;28;20177;-59
2023/09/03 06:42:42;;;;;;;4.53;2.70;;;;;;;21.70;77.52;101168.84;5109693;28;20185;-59
2023/09/03 06:45:08;;;;;;;4.37;2.90;;;;;;;21.72;77.72;101174.22;5094230;28;20219;-59
2023/09/03 06:47:33;;;;;;;4.23;2.93;;;;;;;21.71;77.66;101173.38;5096400;28;20185;-59
2023/09/03 06:49:59;;;;;;;3.50;2.57;;;;;;;21.72;77.74;101179.97;5101936;28;20813;-59
2023/09/03 06:52:24;;;;;;;4.47;2.70;;;;;;;21.72;77.66;101179.97;5089231;28;20185;-59
2023/09/03 06:54:50;;;;;;;4.93;3.27;;;;;;;21.72;77.31;101180.78;5089229;28;20189;-59
2023/09/03 06:57:16;;;;;;;3.70;2.60;;;;;;;21.72;77.34;101189.41;5077740;28;20276;-59
2023/09/03 06:59:41;;;;;;;5.20;2.90;;;;;;;21.72;77.25;101182.84;5073105;28;20182;-59
2023/09/03 07:02:07;;;;;;;6.30;2.60;;;;;;;21.71;77.45;101192.66;5095210;28;20625;-59
2023/09/03 07:04:34;;;;;;;4.03;2.60;;;;;;;21.71;78.00;101190.63;5088892;28;20202;-59
2023/09/03 07:06:59;;;;;;;4.20;2.50;;;;;;;21.72;77.40;101192.28;5088951;28;20424;-58
2023/09/03 07:09:28;;;;;;;3.80;2.60;;;;;;;21.72;77.57;101195.16;5090933;28;21013;-59
2023/09/03 07:11:54;;;;;;;4.17;2.50;;;;;;;21.71;77.73;101196.38;5101741;28;20182;-60
2023/09/03 07:14:19;;;;;;;3.90;2.73;;;;;;;21.72;77.89;101200.91;5108217;28;20435;-59
2023/09/03 07:16:45;;;;;;;6.10;2.87;;;;;;;21.72;77.64;101206.66;5107030;28;20222;-59
2023/09/03 07:19:10;;;;;;;4.37;2.53;;;;;;;21.71;77.82;101205.00;5070962;28;20215;-59
2023/09/03 07:21:36;;;;;;;6.13;2.50;;;;;;;21.71;77.57;101207.88;5091941;28;20243;-59
2023/09/03 07:24:01;;;;;;;4.23;2.57;;;;;;;21.71;77.50;101199.25;5092043;28;20181;-59
2023/09/03 07:26:27;;;;;;;4.50;2.50;;;;;;;21.71;77.76;101202.13;5096029;28;20606;-59
2023/09/03 07:28:52;;;;;;;6.83;2.93;;;;;;;21.72;77.91;101198.03;5104815;28;20186;-59
2023/09/03 07:31:18;;;;;;;4.20;2.67;;;;;;;21.71;77.54;101213.63;5089664;28;20777;-59
2023/09/03 07:33:44;;;;;;;4.43;2.63;;;;;;;21.72;77.47;101214.47;5071033;28;20231;-59
2023/09/03 07:36:10;;;;;;;5.70;2.90;;;;;;;21.71;77.62;101213.63;5105664;28;20231;-59
2023/09/03 07:38:37;;;;;;;4.57;3.03;;;;;;;21.72;77.88;101223.09;5090952;28;20423;-59
2023/09/03 07:41:02;;;;;;;6.77;2.50;;;;;;;21.73;77.81;101224.75;5105780;28;20440;-59
2023/09/03 07:43:29;;;;;;;4.20;2.53;;;;;;;21.72;77.70;101229.66;5108396;28;20461;-59
2023/09/03 07:45:54;;;;;;;4.43;2.90;;;;;;;21.72;77.63;101221.03;5105132;28;20661;-59
2023/09/03 07:48:20;;;;;;;5.43;2.90;;;;;;;21.72;77.54;101218.16;5092447;28;20444;-59
2023/09/03 07:50:45;;;;;;;6.50;3.17;;;;;;;21.71;77.65;101228.00;5069516;28;20206;-59
2023/09/03 07:53:11;;;;;;;5.17;3.10;;;;;;;21.72;77.84;101218.16;5091398;28;20235;-59
2023/09/03 07:55:36;;;;;;;3.97;2.90;;;;;;;21.73;77.92;101224.75;5089973;28;20614;-59
2023/09/03 07:58:02;;;;;;;4.73;2.70;;;;;;;21.73;77.67;101228.44;5087600;28;20649;-59
2023/09/03 08:00:27;;;;;;;4.00;2.93;;;;;;;21.72;78.05;101232.53;5101937;28;20178;-59
2023/09/03 08:02:53;;;;;;;4.27;2.87;;;;;;;21.73;77.60;101239.13;5102556;28;20210;-59
2023/09/03 08:05:18;;;;;;;3.70;2.43;;;;;;;21.73;77.51;101237.06;5108514;28;20181;-58
2023/09/03 08:07:45;;;;;;;4.07;2.70;;;;;;;21.73;77.60;101231.31;5106391;28;20633;-59
2023/09/03 08:10:11;;;;;;;3.63;2.70;;;;;;;21.74;77.80;101229.28;5108933;28;20154;-59
2023/09/03 08:12:36;;;;;;;4.83;3.03;;;;;;;21.73;78.10;101239.94;5108492;28;20422;-59
2023/09/03 08:15:02;;;;;;;5.30;2.83;;;;;;;21.73;77.81;101245.69;5108663;28;20180;-58
2023/09/03 08:17:30;;;;;;;4.07;2.57;;;;;;;21.74;77.97;101238.75;5101435;28;20220;-60
2023/09/03 08:19:55;;;;;;;4.03;2.53;;;;;;;21.73;77.89;101237.06;5091204;28;20213;-59
2023/09/03 08:22:21;;;;;;;4.40;2.90;;;;;;;21.74;78.22;101232.16;5070157;28;20412;-59
2023/09/03 08:24:46;;;;;;;5.40;2.60;;;;;;;21.74;78.31;101243.66;5088419;28;20206;-59
2023/09/03 08:27:12;;;;;;;5.33;3.40;;;;;;;21.74;78.56;101253.13;5090044;28;20181;-59
2023/09/03 08:29:37;;;;;;;4.50;3.10;;;;;;;21.74;78.30;101247.38;5088496;28;20236;-59
2023/09/03 08:32:03;;;;;;;4.40;2.70;;;;;;;21.75;78.36;101249.03;5094074;28;20200;-59
2023/09/03 08:34:28;;;;;;;4.20;2.93;;;;;;;21.76;78.64;101255.59;5102399;28;20395;-59
2023/09/03 08:36:54;;;;;;;4.57;3.10;;;;;;;21.75;78.27;101263.41;5088184;28;20553;-59
2023/09/03 08:39:19;;;;;;;4.87;3.13;;;;;;;21.75;78.64;101259.69;5102473;28;20228;-60
2023/09/03 08:41:44;;;;;;;4.07;2.77;;;;;;;21.76;78.84;101269.97;5095628;28;20210;-59
2023/09/03 08:44:37;;;;;;;4.13;3.07;;;;;;;21.76;79.13;101265.06;5086707;28;20189;-59
2023/09/03 08:47:03;;;;;;;4.87;2.80;;;;;;;21.76;78.46;101265.06;5083015;28;20200;-59
2023/09/03 08:49:31;;;;;;;6.70;3.00;;;;;;;21.77;78.83;101260.16;5105031;28;20447;-59
2023/09/03 08:51:59;;;;;;;6.33;2.80;;;;;;;21.76;78.74;101259.31;5101575;28;20530;-59
2023/09/03 08:54:26;;;;;;;5.07;3.30;;;;;;;21.76;78.63;101253.56;5106876;28;20526;-59
2023/09/03 08:56:51;;;;;;;5.30;2.83;;;;;;;21.76;78.84;101267.94;5094554;28;20476;-59
2023/09/03 08:59:17;;;;;;;3.80;2.90;;;;;;;21.76;78.91;101259.31;5089215;28;20439;-59
2023/09/03 09:01:44;;;;;;;5.50;2.77;;;;;;;21.76;79.03;101252.72;5093896;28;20189;-59
2023/09/03 09:04:10;;;;;;;6.57;3.37;;;;;;;21.78;78.67;101259.75;5093624;28;20166;-59
2023/09/03 09:06:35;;;;;;;4.43;2.87;;;;;;;21.77;78.54;101249.47;5112197;28;20633;-59
2023/09/03 09:09:01;;;;;;;5.97;2.67;;;;;;;21.78;78.36;101239.63;5104691;28;20181;-59
2023/09/03 09:11:31;;;;;;;4.53;3.27;;;;;;;21.79;78.90;101246.22;5103038;28;20197;-59
2023/09/03 09:13:57;;;;;;;4.10;2.70;;;;;;;21.78;78.33;101251.13;5092639;28;20182;-59
2023/09/03 09:16:23;;;;;;;4.43;2.63;;;;;;;21.79;78.60;101252.81;5098823;28;20560;-59
2023/09/03 09:18:48;;;;;;;5.07;2.50;;;;;;;21.79;78.81;101247.06;5112011;28;20496;-59
2023/09/03 09:21:13;;;;;;;6.43;2.90;;;;;;;21.80;78.29;101262.25;5110127;28;20169;-59
2023/09/03 09:23:39;;;;;;;3.40;2.63;;;;;;;21.80;78.66;101256.50;5108777;28;20174;-59
2023/09/03 09:26:17;;;;;;;4.03;2.60;;;;;;;21.82;78.76;101254.91;5101638;28;20181;-59
2023/09/03 09:28:59;;;;;;;5.40;2.70;;;;;;;21.81;78.70;101255.28;5090514;28;20170;-59
2023/09/03 09:31:31;;;;;;;3.53;2.60;;;;;;;21.82;78.25;101256.97;5093148;28;21192;-59
2023/09/03 09:34:01;;;;;;;4.73;3.03;;;;;;;21.82;78.65;101260.66;5107912;28;20518;-60
2023/09/03 09:36:27;;;;;;;4.10;2.80;;;;;;;21.83;78.73;101264.38;5107396;28;20474;-59
2023/09/03 09:38:52;;;;;;;4.20;2.40;;;;;;;21.83;78.50;101278.75;5088319;28;20425;-58
2023/09/03 09:41:22;;;;;;;5.83;2.67;;;;;;;21.84;78.73;101278.38;5092543;28;20201;-59
2023/09/03 09:43:48;;;;;;;3.83;2.73;;;;;;;21.85;78.48;101274.28;5101400;28;20205;-60
2023/09/03 09:46:31;;;;;;;3.20;2.30;;;;;;;21.84;78.73;101278.38;5096602;28;20445;-59
2023/09/03 09:49:00;;;;;;;4.30;3.07;;;;;;;21.84;78.39;101283.28;5075896;28;20219;-59
2023/09/03 09:51:27;;;;;;;4.20;2.67;;;;;;;21.84;78.24;101278.38;5089775;28;20519;-59
2023/09/03 09:53:59;;;;;;;4.60;2.90;;;;;;;21.85;78.76;101280.03;5090013;28;20496;-59
2023/09/03 09:56:27;;;;;;;4.03;2.47;;;;;;;21.85;78.39;101277.16;5105430;28;20568;-59
2023/09/03 09:58:52;;;;;;;3.93;2.53;;;;;;;21.85;78.68;101277.16;5110195;28;20462;-60
2023/09/03 10:01:18;;;;;;;6.53;3.00;;;;;;;21.85;78.24;101280.03;5084549;28;20448;-59
2023/09/03 10:03:45;;;;;;;3.30;2.50;;;;;;;21.85;78.41;101280.03;5110209;28;20185;-59
2023/09/03 10:06:12;;;;;;;7.17;2.83;;;;;;;21.86;78.67;101280.84;5090822;28;20456;-59
2023/09/03 10:08:38;;;;;;;4.50;3.10;;;;;;;21.87;78.51;101285.41;5090523;28;20435;-59
2023/09/03 10:11:03;;;;;;;4.60;2.33;;;;;;;21.87;78.51;101286.22;5110188;28;20415;-60
2023/09/03 10:13:30;;;;;;;5.53;2.70;;;;;;;21.86;78.92;101281.69;5105991;28;20181;-59
2023/09/03 10:15:56;;;;;;;6.90;3.20;;;;;;;21.87;78.76;101289.09;5109689;28;20217;-60
2023/09/03 10:18:21;;;;;;;3.90;2.73;;;;;;;21.87;78.69;101299.78;5089785;28;20517;-59
2023/09/03 10:20:47;;;;;;;4.43;2.90;;;;;;;21.88;78.60;101289.94;5091702;28;20201;-60
2023/09/03 10:23:13;;;;;;;5.40;3.20;;;;;;;21.88;78.35;101302.25;5089405;28;20186;-59
2023/09/03 10:25:38;;;;;;;4.27;2.70;;;;;;;21.88;78.75;101293.63;5073673;28;20180;-59
2023/09/03 10:28:05;;;;;;;4.00;2.33;;;;;;;21.88;78.68;101285.00;5089335;28;20404;-60
2023/09/03 10:30:39;;;;;;;3.77;2.53;;;;;;;21.89;78.54;101280.09;5073033;28;20178;-59
2023/09/03 10:33:07;;;;;;;4.20;2.77;;;;;;;21.90;78.86;101273.97;5090601;28;20424;-59
2023/09/03 10:35:32;;;;;;;5.30;2.60;;;;;;;21.89;78.92;101272.31;5071224;28;20877;-59
2023/09/03 10:37:58;;;;;;;5.50;2.50;;;;;;;21.89;78.67;101269.44;5099330;28;20438;-59
2023/09/03 10:40:24;;;;;;;4.93;2.93;;;;;;;21.90;78.81;101264.50;5106349;28;20174;-59
2023/09/03 10:42:54;;;;;;;4.00;2.47;;;;;;;21.90;78.96;101265.34;5090124;28;20209;-59
2023/09/03 10:45:19;;;;;;;3.30;2.13;;;;;;;21.91;78.83;101266.16;5087689;28;20431;-59
2023/09/03 10:48:01;;;;;;;4.37;2.40;;;;;;;21.91;78.31;101261.25;5087979;28;20420;-59
2023/09/03 10:50:50;;;;;;;3.00;2.23;;;;;;;21.92;78.63;101262.09;5108460;28;20221;-59
2023/09/03 10:53:38;;;;;;;3.17;2.17;;;;;;;21.92;78.67;101254.28;5094939;28;20420;-59
2023/09/03 10:56:09;;;;;;;3.53;2.27;;;;;;;21.93;78.60;101260.88;5099931;28;20531;-59
2023/09/03 10:58:35;;;;;;;5.20;2.00;;;;;;;21.92;78.63;101251.41;5100542;28;20466;-60
2023/09/03 11:01:30;;;;;;;3.37;2.40;;;;;;;21.93;78.20;101258.81;5088185;28;20440;-59
2023/09/03 11:03:55;;;;;;;2.90;2.20;;;;;;;21.92;78.49;101234.16;5093696;28;20278;-59
2023/09/03 11:06:25;;;;;;;4.30;2.33;;;;;;;21.92;78.50;101245.66;5089538;28;20499;-59
2023/09/03 11:08:59;;;;;;;4.80;2.43;;;;;;;21.94;78.13;101240.38;5088905;28;20158;-59
2023/09/03 11:11:27;;;;;;;5.20;2.67;;;;;;;21.94;78.60;101243.25;5087875;28;20411;-59
2023/09/03 11:13:52;;;;;;;3.00;2.07;;;;;;;21.94;78.18;101254.75;5106062;28;20430;-59
2023/09/03 11:16:20;;;;;;;7.70;2.13;;;;;;;21.95;78.64;101256.41;5095243;28;20514;-59
2023/09/03 11:18:49;;;;;;;3.43;2.10;;;;;;;21.94;78.31;101251.88;5059071;28;20182;-59
2023/09/03 11:21:15;;;;;;;3.10;2.23;;;;;;;21.96;78.42;101257.22;5087547;28;20448;-59
2023/09/03 11:23:46;;;;;;;4.10;2.53;;;;;;;21.95;78.36;101249.81;5055942;28;20475;-60